createdAt,value
2022-10-23T00:01:16.286Z,16.43
2022-10-23T00:03:43.178Z,23.38
2022-10-23T00:06:09.859Z,18.73
2022-10-23T00:08:36.472Z,15.95
2022-10-23T00:11:09.748Z,17.85
2022-10-23T00:13:36.197Z,19.33
2022-10-23T00:16:02.865Z,15.85
2022-10-23T00:18:29.316Z,17.63
2022-10-23T00:20:56.261Z,18.35
2022-10-23T00:23:22.815Z,19.10
2022-10-23T00:25:49.426Z,16.80
2022-10-23T00:28:15.879Z,21.10
2022-10-23T00:30:42.477Z,19.98
2022-10-23T00:33:10.227Z,18.17
2022-10-23T00:35:40.556Z,17.60
2022-10-23T00:38:07.790Z,18.27
2022-10-23T00:40:35.345Z,21.35
2022-10-23T00:43:02.262Z,19.10
2022-10-23T00:45:33.575Z,22.67
2022-10-23T00:48:01.373Z,20.30
2022-10-23T00:50:30.400Z,19.73
2022-10-23T00:52:59.956Z,18.98
2022-10-23T00:55:26.959Z,21.23
2022-10-23T00:57:53.619Z,19.30
2022-10-23T01:00:40.298Z,18.77
2022-10-23T01:03:07.051Z,20.80
2022-10-23T01:05:41.532Z,24.35
2022-10-23T01:08:15.408Z,22.02
2022-10-23T01:10:47.801Z,20.08
2022-10-23T01:13:43.438Z,18.88
2022-10-23T01:16:24.184Z,21.63
2022-10-23T01:19:17.049Z,23.00
2022-10-23T01:22:13.418Z,22.23
2022-10-23T01:24:46.047Z,22.08
2022-10-23T01:27:34.589Z,21.85
2022-10-23T01:30:03.650Z,20.63
2022-10-23T01:32:48.242Z,21.23
2022-10-23T01:35:24.057Z,25.42
2022-10-23T01:38:18.390Z,27.02
2022-10-23T01:40:49.442Z,25.02
2022-10-23T01:43:20.364Z,26.03
2022-10-23T01:45:50.972Z,25.38
2022-10-23T01:48:20.499Z,22.95
2022-10-23T01:50:47.351Z,26.02
2022-10-23T01:53:13.852Z,29.10
2022-10-23T01:58:13.955Z,28.50
2022-10-23T02:00:41.513Z,26.05
2022-10-23T02:03:08.936Z,26.95
2022-10-23T02:05:35.709Z,24.92
2022-10-23T02:08:02.854Z,30.50
2022-10-23T02:10:42.023Z,24.48
2022-10-23T02:13:26.282Z,28.05
2022-10-23T02:16:04.049Z,26.77
2022-10-23T02:19:12.382Z,33.72
2022-10-23T02:21:48.659Z,29.20
2022-10-23T02:24:17.974Z,26.38
2022-10-23T02:27:05.222Z,30.20
2022-10-23T02:29:35.782Z,26.90
2022-10-23T02:32:02.322Z,25.67
2022-10-23T02:34:28.802Z,24.67
2022-10-23T02:36:55.272Z,25.02
2022-10-23T02:39:24.140Z,25.42
2022-10-23T02:41:56.435Z,23.33
2022-10-23T02:44:28.671Z,27.70
2022-10-23T02:47:33.691Z,24.60
2022-10-23T02:50:05.800Z,26.38
2022-10-23T02:53:03.605Z,25.73
2022-10-23T02:55:45.215Z,26.45
2022-10-23T02:58:28.417Z,23.13
2022-10-23T03:01:00.119Z,24.03
2022-10-23T03:03:36.533Z,19.67
2022-10-23T03:06:03.299Z,24.27
2022-10-23T03:08:29.760Z,23.98
2022-10-23T03:10:56.330Z,31.80
2022-10-23T03:13:23.372Z,27.80
2022-10-23T03:15:49.811Z,25.70
2022-10-23T03:18:16.271Z,27.23
2022-10-23T03:20:42.700Z,22.02
2022-10-23T03:23:12.440Z,21.95
2022-10-23T03:25:38.948Z,22.67
2022-10-23T03:28:05.380Z,22.98
2022-10-23T03:30:32.046Z,22.23
2022-10-23T03:32:58.599Z,21.00
2022-10-23T03:35:25.029Z,25.08
2022-10-23T03:37:51.461Z,27.63
2022-10-23T03:40:17.922Z,26.98
2022-10-23T03:42:44.338Z,27.92
2022-10-23T03:45:10.763Z,22.98
2022-10-23T03:47:41.347Z,27.35
2022-10-23T03:50:09.477Z,27.83
2022-10-23T03:52:35.913Z,33.17
2022-10-23T03:55:02.634Z,27.10
2022-10-23T03:57:29.086Z,28.15
2022-10-23T03:59:55.590Z,27.38
2022-10-23T04:02:22.181Z,27.83
2022-10-23T04:04:48.684Z,27.50
2022-10-23T04:07:15.127Z,29.02
2022-10-23T04:09:41.619Z,26.98
2022-10-23T04:12:09.334Z,29.50
2022-10-23T04:14:35.772Z,32.67
2022-10-23T04:17:02.232Z,25.00
2022-10-23T04:19:28.657Z,27.67
2022-10-23T04:21:55.163Z,26.52
2022-10-23T04:24:21.620Z,26.13
2022-10-23T04:26:48.048Z,25.43
2022-10-23T04:29:14.494Z,25.33
2022-10-23T04:31:40.950Z,26.60
2022-10-23T04:34:07.396Z,25.95
2022-10-23T04:36:33.948Z,26.77
2022-10-23T04:39:00.478Z,25.27
2022-10-23T04:41:27.054Z,27.23
2022-10-23T04:43:53.470Z,24.70
2022-10-23T04:46:20.065Z,25.20
2022-10-23T04:48:46.497Z,26.33
2022-10-23T04:51:16.040Z,26.27
2022-10-23T04:53:42.495Z,27.48
2022-10-23T04:56:13.862Z,27.08
2022-10-23T04:58:41.279Z,22.42
2022-10-23T05:01:10.609Z,25.23
2022-10-23T05:03:38.041Z,22.93
2022-10-23T05:06:05.394Z,25.90
2022-10-23T05:08:32.356Z,24.60
2022-10-23T05:10:58.923Z,26.85
2022-10-23T05:13:25.486Z,27.88
2022-10-23T05:15:52.242Z,28.13
2022-10-23T05:18:23.251Z,30.85
2022-10-23T05:20:53.480Z,25.00
2022-10-23T05:23:21.234Z,29.92
2022-10-23T05:25:47.662Z,30.48
2022-10-23T05:28:14.129Z,30.20
2022-10-23T05:30:40.589Z,31.35
2022-10-23T05:33:07.032Z,29.92
2022-10-23T05:35:33.774Z,28.15
2022-10-23T05:38:02.044Z,25.45
2022-10-23T05:40:28.611Z,24.50
2022-10-23T05:42:55.249Z,22.35
2022-10-23T05:45:21.882Z,23.63
2022-10-23T05:47:49.240Z,26.08
2022-10-23T05:50:15.845Z,28.38
2022-10-23T05:52:42.682Z,28.77
2022-10-23T05:55:09.860Z,30.30
2022-10-23T05:57:36.415Z,29.90
2022-10-23T06:00:03.241Z,26.13
2022-10-23T06:02:29.770Z,24.90
2022-10-23T06:04:56.301Z,30.37
2022-10-23T06:07:27.705Z,31.55
2022-10-23T06:09:56.420Z,25.17
2022-10-23T06:12:23.273Z,29.38
2022-10-23T06:14:50.978Z,22.38
2022-10-23T06:17:18.418Z,25.03
2022-10-23T06:19:46.118Z,27.65
2022-10-23T06:22:12.684Z,39.00
2022-10-23T06:24:39.188Z,34.53
2022-10-23T06:27:05.693Z,42.92
2022-10-23T06:29:35.470Z,40.77
2022-10-23T06:32:02.252Z,39.63
2022-10-23T06:34:28.706Z,42.55
2022-10-23T06:36:55.166Z,41.92
2022-10-23T06:39:22.198Z,40.80
2022-10-23T06:41:48.673Z,40.63
2022-10-23T06:44:15.132Z,38.85
2022-10-23T06:46:41.627Z,42.10
2022-10-23T06:49:08.137Z,48.65
2022-10-23T06:51:34.600Z,46.33
2022-10-23T06:54:01.070Z,40.83
2022-10-23T06:56:29.306Z,51.08
2022-10-23T06:58:56.569Z,39.80
2022-10-23T07:01:23.120Z,40.67
2022-10-23T07:03:49.669Z,42.75
2022-10-23T07:06:16.162Z,39.33
2022-10-23T07:08:42.651Z,38.85
2022-10-23T07:11:11.079Z,35.75
2022-10-23T07:13:38.631Z,38.22
2022-10-23T07:16:32.049Z,33.90
2022-10-23T07:19:01.098Z,35.67
2022-10-23T07:21:29.822Z,38.75
2022-10-23T07:23:57.846Z,31.65
2022-10-23T07:26:24.704Z,33.40
2022-10-23T07:28:55.057Z,30.77
2022-10-23T07:31:28.028Z,29.70
2022-10-23T07:33:55.964Z,30.25
2022-10-23T07:36:22.513Z,33.50
2022-10-23T07:38:49.045Z,29.95
2022-10-23T07:41:16.017Z,28.63
2022-10-23T07:43:42.583Z,24.60
2022-10-23T07:46:10.004Z,26.58
2022-10-23T07:48:38.258Z,24.05
2022-10-23T07:51:08.570Z,23.42
2022-10-23T07:53:53.713Z,22.20
2022-10-23T07:56:26.339Z,26.40
2022-10-23T07:58:56.028Z,27.33
2022-10-23T08:01:33.233Z,25.00
2022-10-23T08:04:00.384Z,21.77
2022-10-23T08:06:27.156Z,21.85
2022-10-23T08:08:53.663Z,25.43
2022-10-23T08:11:26.706Z,21.55
2022-10-23T08:13:54.501Z,21.35
2022-10-23T08:16:21.771Z,22.77
2022-10-23T08:18:49.577Z,23.77
2022-10-23T08:21:16.986Z,22.33
2022-10-23T08:23:44.144Z,24.88
2022-10-23T08:26:11.471Z,17.92
2022-10-23T08:28:39.221Z,22.40
2022-10-23T08:31:18.263Z,19.92
2022-10-23T08:33:44.948Z,20.50
2022-10-23T08:36:26.050Z,20.05
2022-10-23T08:38:54.448Z,19.23
2022-10-23T08:42:06.053Z,19.05
2022-10-23T08:44:48.765Z,15.30
2022-10-23T08:47:19.967Z,14.97
2022-10-23T08:49:50.246Z,14.98
2022-10-23T08:52:19.733Z,16.90
2022-10-23T08:54:54.628Z,12.75
2022-10-23T08:57:24.069Z,12.25
2022-10-23T08:59:59.320Z,15.10
2022-10-23T09:02:30.708Z,14.45
2022-10-23T09:04:58.100Z,15.38
2022-10-23T09:07:42.134Z,15.45
2022-10-23T09:10:24.039Z,12.00
2022-10-23T09:12:50.620Z,12.20
2022-10-23T09:15:28.390Z,11.95
2022-10-23T09:18:04.784Z,10.35
2022-10-23T09:20:35.580Z,11.05
2022-10-23T09:23:08.040Z,11.00
2022-10-23T09:25:37.859Z,9.30
2022-10-23T09:28:05.702Z,9.60
2022-10-23T09:30:39.434Z,8.80
2022-10-23T09:33:15.155Z,9.13
2022-10-23T09:35:53.324Z,8.35
2022-10-23T09:38:36.208Z,9.50
2022-10-23T09:41:28.983Z,9.13
2022-10-23T09:44:07.693Z,7.20
2022-10-23T09:46:45.716Z,6.47
2022-10-23T09:49:22.830Z,7.13
2022-10-23T09:51:54.417Z,5.53
2022-10-23T09:54:24.063Z,5.63
2022-10-23T09:56:51.595Z,5.00
2022-10-23T09:59:24.284Z,5.40
2022-10-23T10:01:51.993Z,7.45
2022-10-23T10:04:18.948Z,7.27
2022-10-23T10:06:45.601Z,5.88
2022-10-23T10:09:14.170Z,4.88
2022-10-23T10:11:52.331Z,5.55
2022-10-23T10:14:36.112Z,4.32
2022-10-23T10:17:38.402Z,8.20
2022-10-23T10:20:42.602Z,6.15
2022-10-23T10:23:24.363Z,5.70
2022-10-23T10:26:18.978Z,5.50
2022-10-23T10:29:09.515Z,8.25
2022-10-23T10:32:02.955Z,6.30
2022-10-23T10:34:30.545Z,5.10
2022-10-23T10:37:00.175Z,4.95
2022-10-23T10:39:35.349Z,6.25
2022-10-23T10:42:38.928Z,6.10
2022-10-23T10:45:58.329Z,4.30
2022-10-23T10:48:49.742Z,7.20
2022-10-23T10:51:39.162Z,6.97
2022-10-23T10:54:19.084Z,6.80
2022-10-23T10:56:47.674Z,6.93
2022-10-23T10:59:22.478Z,7.87
2022-10-23T11:02:33.239Z,7.07
2022-10-23T11:05:15.330Z,7.00
2022-10-23T11:07:51.284Z,6.10
2022-10-23T11:10:19.104Z,8.38
2022-10-23T11:12:47.714Z,10.93
2022-10-23T11:15:41.254Z,7.05
2022-10-23T11:18:15.703Z,8.77
2022-10-23T11:20:50.947Z,8.43
2022-10-23T11:23:27.824Z,6.80
2022-10-23T11:26:06.603Z,7.67
2022-10-23T11:29:03.990Z,10.15
2022-10-23T11:31:38.932Z,10.63
2022-10-23T11:34:17.648Z,13.20
2022-10-23T11:36:49.959Z,10.23
2022-10-23T11:39:27.923Z,10.20
2022-10-23T11:42:05.097Z,9.02
2022-10-23T11:44:34.544Z,9.90
2022-10-23T11:47:06.561Z,7.38
2022-10-23T11:49:33.146Z,9.38
2022-10-23T11:52:01.696Z,10.70
2022-10-23T11:54:28.728Z,6.88
2022-10-23T11:57:10.342Z,9.07
2022-10-23T11:59:51.432Z,6.53
2022-10-23T12:02:40.551Z,9.10
2022-10-23T12:05:09.621Z,7.53
2022-10-23T12:07:37.516Z,5.55
2022-10-23T12:10:04.098Z,6.20
2022-10-23T12:12:40.881Z,8.43
2022-10-23T12:15:16.359Z,9.45
2022-10-23T12:17:43.907Z,5.20
2022-10-23T12:20:13.757Z,6.25
2022-10-23T12:23:02.131Z,5.95
2022-10-23T12:25:47.432Z,5.05
2022-10-23T12:28:40.211Z,5.40
2022-10-23T12:31:23.611Z,7.07
2022-10-23T12:34:01.601Z,5.45
2022-10-23T12:36:31.121Z,7.05
2022-10-23T12:38:58.750Z,5.60
2022-10-23T12:41:27.779Z,5.95
2022-10-23T12:44:02.915Z,8.13
2022-10-23T12:46:42.469Z,7.07
2022-10-23T12:49:18.119Z,6.45
2022-10-23T12:51:45.279Z,6.65
2022-10-23T12:54:20.147Z,6.55
2022-10-23T12:56:47.312Z,5.70
2022-10-23T12:59:16.940Z,6.15
2022-10-23T13:01:43.916Z,7.70
2022-10-23T13:04:10.819Z,4.90
2022-10-23T13:06:38.737Z,4.88
2022-10-23T13:09:06.663Z,5.07
2022-10-23T13:11:33.438Z,4.10
2022-10-23T13:14:00.048Z,7.55
2022-10-23T13:16:27.132Z,5.13
2022-10-23T13:18:54.479Z,5.05
2022-10-23T13:21:25.886Z,6.93
2022-10-23T13:23:52.918Z,5.20
2022-10-23T13:26:45.207Z,4.80
2022-10-23T13:29:21.615Z,4.32
2022-10-23T13:31:50.202Z,6.95
2022-10-23T13:34:29.695Z,6.27
2022-10-23T13:37:22.022Z,5.82
2022-10-23T13:40:18.985Z,6.40
2022-10-23T13:42:50.186Z,5.03
2022-10-23T13:45:21.277Z,5.00
2022-10-23T13:47:47.798Z,6.10
2022-10-23T13:50:14.452Z,6.82
2022-10-23T13:52:40.952Z,5.53
2022-10-23T13:55:20.959Z,5.45
2022-10-23T13:57:47.623Z,6.15
2022-10-23T14:00:15.311Z,4.67
2022-10-23T14:02:42.102Z,6.32
2022-10-23T14:05:09.360Z,6.40
2022-10-23T14:07:35.912Z,4.30
2022-10-23T14:10:02.453Z,3.78
2022-10-23T14:12:28.972Z,4.27
2022-10-23T14:14:55.474Z,4.22
2022-10-23T14:17:22.048Z,5.63
2022-10-23T14:19:48.557Z,4.32
2022-10-23T14:22:15.073Z,6.30
2022-10-23T14:27:08.168Z,5.13
2022-10-23T14:29:34.808Z,4.47
2022-10-23T14:32:01.404Z,3.75
2022-10-23T14:34:27.933Z,6.00
2022-10-23T14:37:07.975Z,4.77
2022-10-23T14:39:35.522Z,4.28
2022-10-23T14:42:02.014Z,2.88
2022-10-23T14:44:28.828Z,4.18
2022-10-23T14:46:55.482Z,4.38
2022-10-23T14:49:21.978Z,5.13
2022-10-23T14:51:48.492Z,4.07
2022-10-23T14:54:15.806Z,6.55
2022-10-23T14:56:42.459Z,6.38
2022-10-23T14:59:10.721Z,5.22
2022-10-23T15:01:47.232Z,4.30
2022-10-23T15:04:15.600Z,6.03
2022-10-23T15:06:42.874Z,7.05
2022-10-23T15:09:09.406Z,6.32
2022-10-23T15:11:37.434Z,6.50
2022-10-23T15:14:03.965Z,6.87
2022-10-23T15:16:30.783Z,9.20
2022-10-23T15:18:57.614Z,7.50
2022-10-23T15:21:24.206Z,8.07
2022-10-23T15:23:50.805Z,8.30
2022-10-23T15:26:22.900Z,8.83
2022-10-23T15:28:57.482Z,9.88
2022-10-23T15:31:54.562Z,8.88
2022-10-23T15:34:23.673Z,9.00
2022-10-23T15:36:50.791Z,12.68
2022-10-23T15:39:20.830Z,10.07
2022-10-23T15:41:48.068Z,10.32
2022-10-23T15:44:17.116Z,8.85
2022-10-23T15:46:43.886Z,9.85
2022-10-23T15:49:10.657Z,8.80
2022-10-23T15:51:37.999Z,6.80
2022-10-23T15:54:08.964Z,8.18
2022-10-23T15:56:35.625Z,6.63
2022-10-23T15:59:02.800Z,11.25
2022-10-23T16:01:29.471Z,9.70
2022-10-23T16:03:56.107Z,8.77
2022-10-23T16:06:23.008Z,7.40
2022-10-23T16:08:49.582Z,9.70
2022-10-23T16:11:24.663Z,10.55
2022-10-23T16:13:51.435Z,9.63
2022-10-23T16:16:18.283Z,10.17
2022-10-23T16:18:45.771Z,11.60
2022-10-23T16:21:20.225Z,10.60
2022-10-23T16:23:48.673Z,9.63
2022-10-23T16:26:17.572Z,11.32
2022-10-23T16:28:47.136Z,8.73
2022-10-23T16:31:20.365Z,14.73
2022-10-23T16:33:48.121Z,12.13
2022-10-23T16:36:14.739Z,12.98
2022-10-23T16:38:41.309Z,13.77
2022-10-23T16:41:07.915Z,14.90
2022-10-23T16:43:34.441Z,14.45
2022-10-23T16:46:21.674Z,17.83
2022-10-23T16:48:50.107Z,14.43
2022-10-23T16:51:19.385Z,14.00
2022-10-23T16:53:46.470Z,16.63
2022-10-23T16:56:18.071Z,13.10
2022-10-23T16:58:44.997Z,13.35
2022-10-23T17:01:19.123Z,13.35
2022-10-23T17:03:48.308Z,15.30
2022-10-23T17:06:18.708Z,11.73
2022-10-23T17:08:45.935Z,16.13
2022-10-23T17:11:18.048Z,16.75
2022-10-23T17:13:47.284Z,12.52
2022-10-23T17:16:21.235Z,9.93
2022-10-23T17:18:48.478Z,14.50
2022-10-23T17:21:16.810Z,11.05
2022-10-23T17:23:43.804Z,10.45
2022-10-23T17:26:12.561Z,13.98
2022-10-23T17:28:43.310Z,10.48
2022-10-23T17:31:21.016Z,12.53
2022-10-23T17:33:49.199Z,15.98
2022-10-23T17:36:16.448Z,13.82
2022-10-23T17:39:03.283Z,12.75
2022-10-23T17:41:29.786Z,13.32
2022-10-23T17:43:57.611Z,12.47
2022-10-23T17:46:25.063Z,12.48
2022-10-23T17:48:51.569Z,13.70
2022-10-23T17:51:20.951Z,14.13
2022-10-23T17:53:49.191Z,13.38
2022-10-23T17:56:27.607Z,14.10
2022-10-23T17:58:56.571Z,16.08
2022-10-23T18:01:25.141Z,16.35
2022-10-23T18:03:52.830Z,16.25
2022-10-23T18:06:28.878Z,15.75
2022-10-23T18:08:56.633Z,20.23
2022-10-23T18:11:25.360Z,19.70
2022-10-23T18:13:52.294Z,19.35
2022-10-23T18:16:19.363Z,20.02
2022-10-23T18:18:51.746Z,21.20
2022-10-23T18:21:20.104Z,23.90
2022-10-23T18:23:46.936Z,19.48
2022-10-23T18:26:18.781Z,22.40
2022-10-23T18:28:47.486Z,21.48
2022-10-23T18:31:15.779Z,22.90
2022-10-23T18:33:42.951Z,23.50
2022-10-23T18:36:13.885Z,22.02
2022-10-23T18:38:40.730Z,16.88
2022-10-23T18:41:07.197Z,19.80
2022-10-23T18:43:44.894Z,20.83
2022-10-23T18:46:14.930Z,23.10
2022-10-23T18:48:43.382Z,21.67
2022-10-23T18:51:15.876Z,21.70
2022-10-23T18:53:43.247Z,20.00
2022-10-23T18:56:09.701Z,21.83
2022-10-23T18:58:36.135Z,21.17
2022-10-23T19:01:02.731Z,20.55
2022-10-23T19:03:29.319Z,17.80
2022-10-23T19:05:55.850Z,17.33
2022-10-23T19:08:22.528Z,20.23
2022-10-23T19:10:50.520Z,18.90
2022-10-23T19:13:17.120Z,19.88
2022-10-23T19:15:44.366Z,22.85
2022-10-23T19:18:11.089Z,19.30
2022-10-23T19:20:37.602Z,20.25
2022-10-23T19:23:05.674Z,20.73
2022-10-23T19:25:34.558Z,20.50
2022-10-23T19:28:02.310Z,20.50
2022-10-23T19:30:29.382Z,18.73
2022-10-23T19:32:55.912Z,20.02
2022-10-23T19:35:22.656Z,17.13
2022-10-23T19:37:49.544Z,18.50
2022-10-23T19:40:16.254Z,20.63
2022-10-23T19:42:43.138Z,20.15
2022-10-23T19:45:12.240Z,23.15
2022-10-23T19:47:39.298Z,21.60
2022-10-23T19:50:06.706Z,19.50
2022-10-23T19:52:34.563Z,18.65
2022-10-23T19:55:04.580Z,19.17
2022-10-23T19:57:33.855Z,17.00
2022-10-23T20:00:01.131Z,18.43
2022-10-23T20:02:28.251Z,18.10
2022-10-23T20:04:55.229Z,17.25
2022-10-23T20:07:21.680Z,19.73
2022-10-23T20:09:48.723Z,17.52
2022-10-23T20:12:15.218Z,17.27
2022-10-23T20:14:41.694Z,20.35
2022-10-23T20:17:08.315Z,18.52
2022-10-23T20:19:35.007Z,17.63
2022-10-23T20:22:01.483Z,19.27
2022-10-23T20:24:28.030Z,18.13
2022-10-23T20:26:55.687Z,19.05
2022-10-23T20:29:22.931Z,17.48
2022-10-23T20:31:52.914Z,15.02
2022-10-23T20:34:19.582Z,16.38
2022-10-23T20:36:48.808Z,23.27
2022-10-23T20:39:18.262Z,19.70
2022-10-23T20:41:45.138Z,20.05
2022-10-23T20:44:13.904Z,22.73
2022-10-23T20:46:40.827Z,22.88
2022-10-23T20:49:07.392Z,29.57
2022-10-23T20:51:35.723Z,30.02
2022-10-23T20:54:02.551Z,27.00
2022-10-23T20:56:34.379Z,24.80
2022-10-23T20:59:12.201Z,24.92
2022-10-23T21:01:50.633Z,17.90
2022-10-23T21:04:20.093Z,17.48
2022-10-23T21:07:08.336Z,18.85
2022-10-23T21:09:33.308Z,20.95
2022-10-23T21:11:59.765Z,16.83
2022-10-23T21:14:27.185Z,18.50
2022-10-23T21:16:53.617Z,18.08
2022-10-23T21:19:20.071Z,20.92
2022-10-23T21:21:46.819Z,27.52
2022-10-23T21:24:17.038Z,30.27
2022-10-23T21:26:44.500Z,35.87
2022-10-23T21:29:20.098Z,35.10
2022-10-23T21:31:57.968Z,36.53
2022-10-23T21:34:25.590Z,38.80
2022-10-23T21:37:12.889Z,32.00
2022-10-23T21:39:38.714Z,25.33
2022-10-23T21:42:05.215Z,25.45
2022-10-23T21:44:31.648Z,29.35
2022-10-23T21:46:58.102Z,26.38
2022-10-23T21:49:24.540Z,39.13
2022-10-23T21:51:51.018Z,35.93
2022-10-23T21:54:17.513Z,31.50
2022-10-23T21:56:45.375Z,25.15
2022-10-23T21:59:22.610Z,21.10
2022-10-23T22:01:49.486Z,18.50
2022-10-23T22:04:17.487Z,22.43
2022-10-23T22:06:44.978Z,19.05
2022-10-23T22:09:18.970Z,21.25
2022-10-23T22:11:45.494Z,20.48
2022-10-23T22:14:11.951Z,24.48
2022-10-23T22:16:38.459Z,23.27
2022-10-23T22:19:04.931Z,17.48
2022-10-23T22:21:31.755Z,17.90
2022-10-23T22:23:59.859Z,17.45
2022-10-23T22:26:34.239Z,22.05
2022-10-23T22:29:06.421Z,19.33
2022-10-23T22:31:34.134Z,16.55
2022-10-23T22:34:13.097Z,18.80
2022-10-23T22:36:48.593Z,17.50
2022-10-23T22:39:15.040Z,16.95
2022-10-23T22:41:43.570Z,16.73
2022-10-23T22:44:11.584Z,18.80
2022-10-23T22:46:38.468Z,19.77
2022-10-23T22:51:32.418Z,18.30
2022-10-23T22:53:59.402Z,17.67
2022-10-23T22:56:27.922Z,17.02
2022-10-23T22:58:55.127Z,16.80
2022-10-23T23:01:27.793Z,19.00
2022-10-23T23:03:54.853Z,17.58
2022-10-23T23:06:21.881Z,18.23
2022-10-23T23:08:49.792Z,15.75
2022-10-23T23:11:17.710Z,21.90
2022-10-23T23:13:44.848Z,18.25
2022-10-23T23:16:28.587Z,15.45
2022-10-23T23:18:59.747Z,14.20
2022-10-23T23:21:26.712Z,20.23
2022-10-23T23:23:53.422Z,20.17
2022-10-23T23:26:20.039Z,18.65
2022-10-23T23:28:50.063Z,19.23
2022-10-23T23:31:18.961Z,15.07
2022-10-23T23:33:45.638Z,28.20
2022-10-23T23:36:13.890Z,28.27
2022-10-23T23:38:41.355Z,19.80
2022-10-23T23:41:12.511Z,19.83
2022-10-23T23:43:38.951Z,25.53
2022-10-23T23:46:05.698Z,19.20
2022-10-23T23:48:32.232Z,18.92
2022-10-23T23:50:58.655Z,20.10
2022-10-23T23:53:25.347Z,27.40
2022-10-23T23:55:51.789Z,21.57
2022-10-23T23:58:18.202Z,21.52
